Airport ICAO


09:18 UTC

8°C


An affordable passengers' Moving Map for your aircraft. Made for the iPad and the iPhone
More information here

LFMC Le Cannet


Le Luc FRANCE   


METAR LFMC 180900Z AUTO 26007KT 200V300 9999 ////// 08/M03 Q1012 0h18min





NOTAMS

OPEN